createdAt,value
2023-01-02T00:00:03.612Z,75.45
2023-01-02T00:01:03.412Z,74.94
2023-01-02T00:02:02.382Z,74.94
2023-01-02T00:03:02.975Z,75.24
2023-01-02T00:04:03.239Z,74.84
2023-01-02T00:05:02.789Z,75.14
2023-01-02T00:06:02.459Z,74.63
2023-01-02T00:07:02.681Z,74.63
2023-01-02T00:08:03.013Z,74.84
2023-01-02T00:09:02.456Z,74.84
2023-01-02T00:10:02.667Z,74.54
2023-01-02T00:11:02.811Z,74.63
2023-01-02T00:12:03.163Z,74.74
2023-01-02T00:13:02.896Z,74.63
2023-01-02T00:14:03.049Z,74.63
2023-01-02T00:15:03.234Z,74.03
2023-01-02T00:16:02.945Z,74.13
2023-01-02T00:17:03.239Z,73.90
2023-01-02T00:18:03.645Z,73.90
2023-01-02T00:19:03.531Z,73.90
2023-01-02T00:20:03.355Z,73.28
2023-01-02T00:21:03.446Z,73.59
2023-01-02T00:22:02.696Z,73.49
2023-01-02T00:23:03.120Z,73.99
2023-01-02T00:24:02.809Z,73.99
2023-01-02T00:25:02.719Z,73.59
2023-01-02T00:26:03.805Z,73.69
2023-01-02T00:27:03.193Z,73.39
2023-01-02T00:28:02.959Z,73.59
2023-01-02T00:29:03.078Z,72.58
2023-01-02T00:30:03.382Z,72.78
2023-01-02T00:31:02.794Z,73.08
2023-01-02T00:32:03.619Z,72.99
2023-01-02T00:33:03.578Z,72.64
2023-01-02T00:34:03.412Z,72.95
2023-01-02T00:35:03.369Z,72.34
2023-01-02T00:36:03.264Z,72.64
2023-01-02T00:37:03.249Z,72.24
2023-01-02T00:38:03.635Z,72.44
2023-01-02T00:39:03.331Z,72.55
2023-01-02T00:40:03.329Z,72.95
2023-01-02T00:41:03.157Z,72.64
2023-01-02T00:42:02.634Z,72.64
2023-01-02T00:43:02.686Z,72.64
2023-01-02T00:44:02.834Z,72.64
2023-01-02T00:45:02.912Z,72.55
2023-01-02T00:46:07.789Z,72.75
2023-01-02T00:47:03.292Z,72.85
2023-01-02T00:48:03.345Z,73.25
2023-01-02T00:49:03.523Z,72.75
2023-01-02T00:50:03.258Z,72.58
2023-01-02T00:51:04.081Z,72.78
2023-01-02T00:52:03.172Z,72.68
2023-01-02T00:53:03.279Z,72.88
2023-01-02T00:54:02.888Z,73.08
2023-01-02T00:55:02.811Z,73.28
2023-01-02T00:56:02.831Z,73.39
2023-01-02T00:57:03.402Z,72.68
2023-01-02T00:58:03.179Z,72.88
2023-01-02T00:59:03.492Z,72.88
2023-01-02T01:00:03.704Z,72.58
2023-01-02T01:01:03.466Z,72.88
2023-01-02T01:02:01.885Z,72.58
2023-01-02T01:03:02.391Z,72.78
2023-01-02T01:04:01.964Z,72.58
2023-01-02T01:05:02.319Z,72.17
2023-01-02T01:06:02.114Z,72.28
2023-01-02T01:07:02.442Z,72.28
2023-01-02T01:08:02.613Z,72.08
2023-01-02T01:09:02.833Z,71.87
2023-01-02T01:10:02.724Z,71.97
2023-01-02T01:11:02.942Z,72.28
2023-01-02T01:12:04.903Z,72.38
2023-01-02T01:13:02.172Z,72.38
2023-01-02T01:14:02.595Z,72.17
2023-01-02T01:15:02.459Z,72.08
2023-01-02T01:16:02.139Z,72.28
2023-01-02T01:17:02.305Z,72.48
2023-01-02T01:18:01.638Z,71.87
2023-01-02T01:19:02.221Z,72.48
2023-01-02T01:20:02.446Z,72.38
2023-01-02T01:21:02.349Z,72.17
2023-01-02T01:22:02.362Z,72.08
2023-01-02T01:23:02.375Z,71.97
2023-01-02T01:24:01.819Z,71.87
2023-01-02T01:25:02.081Z,72.08
2023-01-02T01:26:02.083Z,71.97
2023-01-02T01:27:02.767Z,72.28
2023-01-02T01:28:02.360Z,71.77
2023-01-02T01:29:02.446Z,72.08
2023-01-02T01:30:02.744Z,72.08
2023-01-02T01:31:02.425Z,72.08
2023-01-02T01:32:02.322Z,71.87
2023-01-02T01:33:01.680Z,71.97
2023-01-02T01:34:01.987Z,71.87
2023-01-02T01:35:01.577Z,71.97
2023-01-02T01:36:01.975Z,72.17
2023-01-02T01:37:02.446Z,71.97
2023-01-02T01:38:02.454Z,71.87
2023-01-02T01:39:02.034Z,71.67
2023-01-02T01:40:02.305Z,72.17
2023-01-02T01:41:02.023Z,71.97
2023-01-02T01:42:02.809Z,71.57
2023-01-02T01:43:02.418Z,71.97
2023-01-02T01:44:02.195Z,71.47
2023-01-02T01:45:02.385Z,71.47
2023-01-02T01:46:02.542Z,71.06
2023-01-02T01:47:01.930Z,71.17
2023-01-02T01:48:01.990Z,71.37
2023-01-02T01:49:02.200Z,71.47
2023-01-02T01:50:05.549Z,71.37
2023-01-02T01:51:01.908Z,71.47
2023-01-02T01:52:02.594Z,71.47
2023-01-02T01:53:02.058Z,71.37
2023-01-02T01:54:02.544Z,71.26
2023-01-02T01:55:02.541Z,71.47
2023-01-02T01:56:02.565Z,71.26
2023-01-02T01:57:03.025Z,71.67
2023-01-02T01:58:02.821Z,71.57
2023-01-02T01:59:02.799Z,71.87
2023-01-02T02:00:02.390Z,71.37
2023-01-02T02:01:02.983Z,71.17
2023-01-02T02:02:03.807Z,71.26
2023-01-02T02:03:03.125Z,71.17
2023-01-02T02:04:03.694Z,71.37
2023-01-02T02:05:03.489Z,71.06
2023-01-02T02:06:03.127Z,71.26
2023-01-02T02:07:03.785Z,71.47
2023-01-02T02:08:03.681Z,71.17
2023-01-02T02:09:03.331Z,71.17
2023-01-02T02:10:03.697Z,70.86
2023-01-02T02:11:03.476Z,71.06
2023-01-02T02:12:02.942Z,70.96
2023-01-02T02:13:02.464Z,70.96
2023-01-02T02:14:02.945Z,70.96
2023-01-02T02:15:03.006Z,71.47
2023-01-02T02:16:02.657Z,70.76
2023-01-02T02:17:03.326Z,70.86
2023-01-02T02:18:03.390Z,71.06
2023-01-02T02:19:03.340Z,70.86
2023-01-02T02:20:03.861Z,70.66
2023-01-02T02:21:03.564Z,71.37
2023-01-02T02:22:02.218Z,71.06
2023-01-02T02:23:02.568Z,70.86
2023-01-02T02:24:02.347Z,70.46
2023-01-02T02:25:02.738Z,70.56
2023-01-02T02:26:02.741Z,70.56
2023-01-02T02:27:02.966Z,70.76
2023-01-02T02:28:02.728Z,70.86
2023-01-02T02:29:02.786Z,70.62
2023-01-02T02:30:03.340Z,70.46
2023-01-02T02:31:02.892Z,70.25
2023-01-02T02:32:03.695Z,70.25
2023-01-02T02:33:03.532Z,70.56
2023-01-02T02:34:03.453Z,70.36
2023-01-02T02:35:03.204Z,70.15
2023-01-02T02:36:03.354Z,70.66
2023-01-02T02:37:02.423Z,70.46
2023-01-02T02:38:02.681Z,70.36
2023-01-02T02:39:02.825Z,70.15
2023-01-02T02:40:02.499Z,70.15
2023-01-02T02:41:02.666Z,70.76
2023-01-02T02:42:02.375Z,70.46
2023-01-02T02:43:02.767Z,70.15
2023-01-02T02:44:02.694Z,70.15
2023-01-02T02:45:02.563Z,70.15
2023-01-02T02:46:02.870Z,70.15
2023-01-02T02:47:02.831Z,69.85
2023-01-02T02:48:03.275Z,69.85
2023-01-02T02:49:03.071Z,69.85
2023-01-02T02:50:03.313Z,70.05
2023-01-02T02:51:02.993Z,70.05
2023-01-02T02:52:02.912Z,70.25
2023-01-02T02:53:03.288Z,69.95
2023-01-02T02:54:03.130Z,70.15
2023-01-02T02:55:03.080Z,70.25
2023-01-02T02:56:03.315Z,70.15
2023-01-02T02:57:03.047Z,70.15
2023-01-02T02:58:03.149Z,70.15
2023-01-02T02:59:03.430Z,70.15
2023-01-02T03:00:03.573Z,70.25
2023-01-02T03:01:03.429Z,70.15
2023-01-02T03:02:03.450Z,70.36
2023-01-02T03:03:03.236Z,70.36
2023-01-02T03:04:03.286Z,69.95
2023-01-02T03:05:03.734Z,70.05
2023-01-02T03:06:03.576Z,70.25
2023-01-02T03:07:02.672Z,70.15
2023-01-02T03:08:02.686Z,69.95
2023-01-02T03:09:02.994Z,69.85
2023-01-02T03:10:02.617Z,69.85
2023-01-02T03:11:02.757Z,69.75
2023-01-02T03:12:03.427Z,69.65
2023-01-02T03:13:03.277Z,69.75
2023-01-02T03:14:03.099Z,70.05
2023-01-02T03:15:03.353Z,69.75
2023-01-02T03:16:03.389Z,69.85
2023-01-02T03:17:03.611Z,69.85
2023-01-02T03:18:03.248Z,69.75
2023-01-02T03:19:03.686Z,70.05
2023-01-02T03:20:03.880Z,69.85
2023-01-02T03:21:03.381Z,69.85
2023-01-02T03:22:03.074Z,69.65
2023-01-02T03:23:02.908Z,69.85
2023-01-02T03:24:03.146Z,69.75
2023-01-02T03:25:02.932Z,69.95
2023-01-02T03:26:02.778Z,69.75
2023-01-02T03:27:03.651Z,69.85
2023-01-02T03:28:03.236Z,69.95
2023-01-02T03:29:03.495Z,69.85
2023-01-02T03:30:03.373Z,69.55
2023-01-02T03:31:03.090Z,69.85
2023-01-02T03:32:03.012Z,69.85
2023-01-02T03:33:03.425Z,69.85
2023-01-02T03:34:03.069Z,69.55
2023-01-02T03:35:02.768Z,69.65
2023-01-02T03:36:03.133Z,69.75
2023-01-02T03:37:03.119Z,70.05
2023-01-02T03:38:03.280Z,69.65
2023-01-02T03:39:03.465Z,69.55
2023-01-02T03:40:03.667Z,69.55
2023-01-02T03:41:03.476Z,69.65
2023-01-02T03:42:02.796Z,69.95
2023-01-02T03:43:02.708Z,69.75
2023-01-02T03:44:02.493Z,69.65
2023-01-02T03:45:02.557Z,69.55
2023-01-02T03:46:02.745Z,69.45
2023-01-02T03:47:03.536Z,69.85
2023-01-02T03:48:03.524Z,69.95
2023-01-02T03:49:03.520Z,70.36
2023-01-02T03:50:03.293Z,69.85
2023-01-02T03:51:03.048Z,69.45
2023-01-02T03:52:02.634Z,69.65
2023-01-02T03:53:02.612Z,69.85
2023-01-02T03:54:03.146Z,69.65
2023-01-02T03:55:03.063Z,69.65
2023-01-02T03:56:03.255Z,69.85
2023-01-02T03:57:03.521Z,69.65
2023-01-02T03:58:03.244Z,69.85
2023-01-02T03:59:03.544Z,69.75
2023-01-02T04:00:03.132Z,70.05
2023-01-02T04:01:03.653Z,69.55
2023-01-02T04:02:02.737Z,69.45
2023-01-02T04:03:02.696Z,69.65
2023-01-02T04:04:03.087Z,69.98
2023-01-02T04:05:02.895Z,69.89
2023-01-02T04:06:02.824Z,69.27
2023-01-02T04:07:03.265Z,69.48
2023-01-02T04:08:03.190Z,69.78
2023-01-02T04:09:02.784Z,69.48
2023-01-02T04:10:02.644Z,69.58
2023-01-02T04:11:03.005Z,69.58
2023-01-02T04:12:02.328Z,69.27
2023-01-02T04:13:02.620Z,69.58
2023-01-02T04:14:02.304Z,69.89
2023-01-02T04:15:02.714Z,69.68
2023-01-02T04:16:02.775Z,69.89
2023-01-02T04:17:02.715Z,70.09
2023-01-02T04:18:02.681Z,69.89
2023-01-02T04:19:02.377Z,69.98
2023-01-02T04:20:02.780Z,69.89
2023-01-02T04:21:02.512Z,69.98
2023-01-02T04:22:03.411Z,69.78
2023-01-02T04:23:03.403Z,69.78
2023-01-02T04:24:03.296Z,69.78
2023-01-02T04:25:03.284Z,69.68
2023-01-02T04:26:03.072Z,69.78
2023-01-02T04:27:02.400Z,69.89
2023-01-02T04:28:02.619Z,70.18
2023-01-02T04:29:02.682Z,70.18
2023-01-02T04:30:03.067Z,70.18
2023-01-02T04:31:02.902Z,69.89
2023-01-02T04:32:02.442Z,69.78
2023-01-02T04:33:03.046Z,69.78
2023-01-02T04:34:02.748Z,69.78
2023-01-02T04:35:02.717Z,69.89
2023-01-02T04:36:02.991Z,69.98
2023-01-02T04:37:03.439Z,70.29
2023-01-02T04:38:02.925Z,70.09
2023-01-02T04:39:03.429Z,69.98
2023-01-02T04:40:03.602Z,69.89
2023-01-02T04:41:03.119Z,70.09
2023-01-02T04:42:02.307Z,69.98
2023-01-02T04:43:02.623Z,69.98
2023-01-02T04:44:02.513Z,70.09
2023-01-02T04:45:02.580Z,70.29
2023-01-02T04:46:02.594Z,70.18
2023-01-02T04:47:02.589Z,70.49
2023-01-02T04:48:02.772Z,69.89
2023-01-02T04:49:02.734Z,70.29
2023-01-02T04:50:02.560Z,70.02
2023-01-02T04:51:03.058Z,69.92
2023-01-02T04:52:02.982Z,70.12
2023-01-02T04:53:02.970Z,70.12
2023-01-02T04:54:02.932Z,70.12
2023-01-02T04:55:03.214Z,70.02
2023-01-02T04:56:03.183Z,69.81
2023-01-02T04:57:02.175Z,69.92
2023-01-02T04:58:02.507Z,70.12
2023-01-02T04:59:02.611Z,70.02
2023-01-02T05:00:02.199Z,70.02
2023-01-02T05:01:02.540Z,70.12
2023-01-02T05:02:03.110Z,70.02
2023-01-02T05:03:03.538Z,70.02
2023-01-02T05:04:03.035Z,70.02
2023-01-02T05:05:03.163Z,70.02
2023-01-02T05:06:03.231Z,70.12
2023-01-02T05:07:02.521Z,69.92
2023-01-02T05:08:02.477Z,70.32
2023-01-02T05:09:02.063Z,70.22
2023-01-02T05:10:02.140Z,70.12
2023-01-02T05:11:02.240Z,69.92
2023-01-02T05:12:02.378Z,70.12
2023-01-02T05:13:02.297Z,69.92
2023-01-02T05:14:07.209Z,70.12
2023-01-02T05:15:02.867Z,70.32
2023-01-02T05:16:02.348Z,70.32
2023-01-02T05:17:02.781Z,70.12
2023-01-02T05:18:02.395Z,70.12
2023-01-02T05:19:02.597Z,70.12
2023-01-02T05:20:02.466Z,70.02
2023-01-02T05:21:02.538Z,70.02
2023-01-02T05:22:02.756Z,69.92
2023-01-02T05:23:03.040Z,70.02
2023-01-02T05:24:03.127Z,70.02
2023-01-02T05:25:02.703Z,70.22
2023-01-02T05:26:03.289Z,70.42
2023-01-02T05:27:03.142Z,70.02
2023-01-02T05:28:02.723Z,70.42
2023-01-02T05:29:03.306Z,70.32
2023-01-02T05:30:03.374Z,70.36
2023-01-02T05:31:02.900Z,70.12
2023-01-02T05:32:02.440Z,70.32
2023-01-02T05:33:02.091Z,70.02
2023-01-02T05:34:02.688Z,70.25
2023-01-02T05:35:02.243Z,70.25
2023-01-02T05:36:02.852Z,70.12
2023-01-02T05:37:03.098Z,69.92
2023-01-02T05:38:03.107Z,70.15
2023-01-02T05:39:03.353Z,70.05
2023-01-02T05:40:02.845Z,70.15
2023-01-02T05:41:02.998Z,70.36
2023-01-02T05:42:02.516Z,70.56
2023-01-02T05:43:02.361Z,70.15
2023-01-02T05:44:02.268Z,69.74
2023-01-02T05:45:02.409Z,69.95
2023-01-02T05:46:02.300Z,69.95
2023-01-02T05:47:02.318Z,70.15
2023-01-02T05:48:02.570Z,70.15
2023-01-02T05:49:02.901Z,69.44
2023-01-02T05:50:02.560Z,69.54
2023-01-02T05:51:02.521Z,69.85
2023-01-02T05:52:02.642Z,69.54
2023-01-02T05:53:02.516Z,69.74
2023-01-02T05:54:03.072Z,69.85
2023-01-02T05:55:02.689Z,69.65
2023-01-02T05:56:02.709Z,69.65
2023-01-02T05:57:02.757Z,69.95
2023-01-02T05:58:02.855Z,69.95
2023-01-02T05:59:03.279Z,69.65
2023-01-02T06:00:02.706Z,69.65
2023-01-02T06:01:02.963Z,69.74
2023-01-02T06:02:02.632Z,69.74
2023-01-02T06:03:02.922Z,69.85
2023-01-02T06:04:02.489Z,69.95
2023-01-02T06:05:02.627Z,69.65
2023-01-02T06:06:02.769Z,70.05
2023-01-02T06:07:02.859Z,69.85
2023-01-02T06:08:03.232Z,69.65
2023-01-02T06:09:02.717Z,69.65
2023-01-02T06:10:03.192Z,69.65
2023-01-02T06:11:02.988Z,69.54
2023-01-02T06:12:02.943Z,69.65
2023-01-02T06:13:03.205Z,69.85
2023-01-02T06:14:03.308Z,70.05
2023-01-02T06:15:03.155Z,69.95
2023-01-02T06:16:03.462Z,69.74
2023-01-02T06:17:02.778Z,69.95
2023-01-02T06:18:02.490Z,70.05
2023-01-02T06:19:02.216Z,70.05
2023-01-02T06:20:02.129Z,70.25
2023-01-02T06:21:02.746Z,70.36
2023-01-02T06:22:02.890Z,70.45
2023-01-02T06:23:02.829Z,70.96
2023-01-02T06:24:02.710Z,70.56
2023-01-02T06:25:02.428Z,70.45
2023-01-02T06:26:02.882Z,70.39
2023-01-02T06:27:02.953Z,71.09
2023-01-02T06:28:02.858Z,70.89
2023-01-02T06:29:02.841Z,70.89
2023-01-02T06:30:02.806Z,70.79
2023-01-02T06:31:03.116Z,71.00
2023-01-02T06:32:03.187Z,71.09
2023-01-02T06:33:03.084Z,71.09
2023-01-02T06:34:03.473Z,71.00
2023-01-02T06:35:02.989Z,71.20
2023-01-02T06:36:03.212Z,70.89
2023-01-02T06:37:09.536Z,70.69
2023-01-02T06:38:03.493Z,70.59
2023-01-02T06:39:03.290Z,70.49
2023-01-02T06:40:03.303Z,70.79
2023-01-02T06:41:03.313Z,70.69
2023-01-02T06:42:03.047Z,70.89
2023-01-02T06:43:03.036Z,70.79
2023-01-02T06:44:02.757Z,70.69
2023-01-02T06:45:03.062Z,70.89
2023-01-02T06:46:02.594Z,70.49
2023-01-02T06:47:03.015Z,70.79
2023-01-02T06:48:03.561Z,70.69
2023-01-02T06:49:03.169Z,70.69
2023-01-02T06:50:03.453Z,70.79
2023-01-02T06:51:03.230Z,70.69
2023-01-02T06:52:02.883Z,70.69
2023-01-02T06:53:02.666Z,70.49
2023-01-02T06:54:02.347Z,70.79
2023-01-02T06:55:02.883Z,70.69
2023-01-02T06:56:02.653Z,70.69
2023-01-02T06:57:02.925Z,70.69
2023-01-02T06:58:09.230Z,70.59
2023-01-02T06:59:03.156Z,70.79
2023-01-02T07:00:02.977Z,70.69
2023-01-02T07:01:02.934Z,70.89
2023-01-02T07:02:02.102Z,70.69
2023-01-02T07:03:02.120Z,71.30
2023-01-02T07:04:02.175Z,71.30
2023-01-02T07:05:02.513Z,71.50
2023-01-02T07:06:02.633Z,71.40
2023-01-02T07:07:02.756Z,71.50
2023-01-02T07:08:02.830Z,71.00
2023-01-02T07:09:02.338Z,71.30
2023-01-02T07:10:02.332Z,71.09
2023-01-02T07:11:02.354Z,71.30
2023-01-02T07:12:02.392Z,71.30
2023-01-02T07:13:02.680Z,71.30
2023-01-02T07:14:02.908Z,71.33
2023-01-02T07:15:02.582Z,71.60
2023-01-02T07:16:02.594Z,71.33
2023-01-02T07:17:02.860Z,71.33
2023-01-02T07:18:02.854Z,71.33
2023-01-02T07:19:03.051Z,71.44
2023-01-02T07:20:02.890Z,71.23
2023-01-02T07:21:03.497Z,71.33
2023-01-02T07:22:02.282Z,71.44
2023-01-02T07:23:02.461Z,71.33
2023-01-02T07:24:02.289Z,71.33
2023-01-02T07:25:02.171Z,71.53
2023-01-02T07:26:02.021Z,71.44
2023-01-02T07:27:02.308Z,71.53
2023-01-02T07:28:02.141Z,71.53
2023-01-02T07:29:02.460Z,71.44
2023-01-02T07:30:02.063Z,71.44
2023-01-02T07:31:01.827Z,71.44
2023-01-02T07:32:02.964Z,70.72
2023-01-02T07:33:02.467Z,71.13
2023-01-02T07:34:02.873Z,71.13
2023-01-02T07:35:03.086Z,70.72
2023-01-02T07:36:02.962Z,70.72
2023-01-02T07:37:02.874Z,70.93
2023-01-02T07:38:03.461Z,71.23
2023-01-02T07:39:03.032Z,71.23
2023-01-02T07:40:02.951Z,71.23
2023-01-02T07:41:03.125Z,71.03
2023-01-02T07:42:03.231Z,71.13
2023-01-02T07:43:03.029Z,71.33
2023-01-02T07:44:03.284Z,71.03
2023-01-02T07:45:02.856Z,71.33
2023-01-02T07:46:03.401Z,71.64
2023-01-02T07:47:02.925Z,71.44
2023-01-02T07:48:02.884Z,71.64
2023-01-02T07:49:02.462Z,71.64
2023-01-02T07:50:02.959Z,71.64
2023-01-02T07:51:02.602Z,71.44
2023-01-02T07:52:03.101Z,71.53
2023-01-02T07:53:02.985Z,71.73
2023-01-02T07:54:03.129Z,71.53
2023-01-02T07:55:02.912Z,71.73
2023-01-02T07:56:02.898Z,71.73
2023-01-02T07:57:02.676Z,71.94
2023-01-02T07:58:02.189Z,71.94
2023-01-02T07:59:02.650Z,71.94
2023-01-02T08:00:02.139Z,71.94
2023-01-02T08:01:05.696Z,72.04
2023-01-02T08:02:03.305Z,72.14
2023-01-02T08:03:02.667Z,72.45
2023-01-02T08:04:03.235Z,72.14
2023-01-02T08:05:03.005Z,71.84
2023-01-02T08:06:03.188Z,71.94
2023-01-02T08:07:02.475Z,71.94
2023-01-02T08:08:02.444Z,71.94
2023-01-02T08:09:02.562Z,71.94
2023-01-02T08:10:02.806Z,71.73
2023-01-02T08:11:02.471Z,71.94
2023-01-02T08:12:02.789Z,72.14
2023-01-02T08:13:02.731Z,71.84
2023-01-02T08:14:02.989Z,71.73
2023-01-02T08:15:03.303Z,72.04
2023-01-02T08:16:02.847Z,71.73
2023-01-02T08:17:03.117Z,72.04
2023-01-02T08:18:03.319Z,71.94
2023-01-02T08:19:03.010Z,71.94
2023-01-02T08:20:07.963Z,71.73
2023-01-02T08:21:03.094Z,71.91
2023-01-02T08:22:01.955Z,72.11
2023-01-02T08:23:02.148Z,72.11
2023-01-02T08:24:02.060Z,72.01
2023-01-02T08:25:02.324Z,71.91
2023-01-02T08:26:01.929Z,71.80
2023-01-02T08:27:02.098Z,71.80
2023-01-02T08:28:02.429Z,71.80
2023-01-02T08:29:02.121Z,71.80
2023-01-02T08:30:02.692Z,72.21
2023-01-02T08:31:02.439Z,72.01
2023-01-02T08:32:02.838Z,72.01
2023-01-02T08:33:03.226Z,72.01
2023-01-02T08:34:03.303Z,72.31
2023-01-02T08:35:02.984Z,72.21
2023-01-02T08:36:03.323Z,72.31
2023-01-02T08:37:02.439Z,72.52
2023-01-02T08:38:03.040Z,72.41
2023-01-02T08:39:02.778Z,72.21
2023-01-02T08:40:02.598Z,72.21
2023-01-02T08:41:02.900Z,72.21
2023-01-02T08:42:03.326Z,72.41
2023-01-02T08:43:03.270Z,72.52
2023-01-02T08:44:03.127Z,72.52
2023-01-02T08:45:02.983Z,72.61
2023-01-02T08:46:02.763Z,72.52
2023-01-02T08:47:02.471Z,72.72
2023-01-02T08:48:20.569Z,72.81
2023-01-02T08:49:02.797Z,72.92
2023-01-02T08:50:02.265Z,73.02
2023-01-02T08:51:02.250Z,73.12
2023-01-02T08:52:02.922Z,73.32
2023-01-02T08:53:04.715Z,73.12
2023-01-02T08:54:02.885Z,73.32
2023-01-02T08:55:02.619Z,73.53
2023-01-02T08:56:02.843Z,73.43
2023-01-02T08:57:02.873Z,73.73
2023-01-02T08:58:02.927Z,73.73
2023-01-02T08:59:03.047Z,73.93
2023-01-02T09:00:03.160Z,74.04
2023-01-02T09:01:03.229Z,74.13
2023-01-02T09:02:02.681Z,74.24
2023-01-02T09:03:02.648Z,74.13
2023-01-02T09:04:11.142Z,74.13
2023-01-02T09:05:02.412Z,74.13
2023-01-02T09:06:02.524Z,74.24
2023-01-02T09:07:02.614Z,74.33
2023-01-02T09:08:02.672Z,74.24
2023-01-02T09:09:09.226Z,74.44
2023-01-02T09:10:03.091Z,74.64
2023-01-02T09:11:02.773Z,74.74
2023-01-02T09:12:03.006Z,74.64
2023-01-02T09:13:02.703Z,74.88
2023-01-02T09:14:02.744Z,74.77
2023-01-02T09:15:02.774Z,74.98
2023-01-02T09:16:02.698Z,74.98
2023-01-02T09:17:03.234Z,75.18
2023-01-02T09:18:03.277Z,75.38
2023-01-02T09:19:03.300Z,75.59
2023-01-02T09:20:03.236Z,75.69
2023-01-02T09:21:03.289Z,75.89
2023-01-02T09:22:02.533Z,75.79
2023-01-02T09:23:02.551Z,76.50
2023-01-02T09:24:02.340Z,76.50
2023-01-02T09:25:02.800Z,76.90
2023-01-02T09:26:02.653Z,77.11
2023-01-02T09:27:02.617Z,77.04
2023-01-02T09:28:02.906Z,77.65
2023-01-02T09:29:03.064Z,77.75
2023-01-02T09:30:02.459Z,78.06
2023-01-02T09:31:06.060Z,78.56
2023-01-02T09:32:02.377Z,80.99
2023-01-02T09:33:02.585Z,82.25
2023-01-02T09:34:02.204Z,83.06
2023-01-02T09:35:02.664Z,84.22
2023-01-02T09:36:02.214Z,85.24
2023-01-02T09:37:02.844Z,85.88
2023-01-02T09:38:02.904Z,86.90
2023-01-02T09:39:02.811Z,87.92
2023-01-02T09:40:02.658Z,87.95
2023-01-02T09:41:02.634Z,88.76
2023-01-02T09:42:02.444Z,88.97
2023-01-02T09:43:02.459Z,89.62
2023-01-02T09:44:02.580Z,90.23
2023-01-02T09:45:08.136Z,91.05
2023-01-02T09:46:02.256Z,91.69
2023-01-02T09:47:02.618Z,92.21
2023-01-02T09:48:02.718Z,92.91
2023-01-02T09:49:02.672Z,93.12
2023-01-02T09:50:02.838Z,93.37
2023-01-02T09:51:07.326Z,93.98
2023-01-02T09:52:03.091Z,94.28
2023-01-02T09:53:03.456Z,94.48
2023-01-02T09:54:03.289Z,94.89
2023-01-02T09:55:03.285Z,94.79
2023-01-02T09:56:02.845Z,94.79
2023-01-02T09:57:03.147Z,94.59
2023-01-02T09:58:03.122Z,94.28
2023-01-02T09:59:03.030Z,94.93
2023-01-02T10:00:02.916Z,95.54
2023-01-02T10:01:03.368Z,95.65
2023-01-02T10:02:02.486Z,95.75
2023-01-02T10:03:07.622Z,95.54
2023-01-02T10:04:03.061Z,95.20
2023-01-02T10:05:02.957Z,95.61
2023-01-02T10:06:03.185Z,95.61
2023-01-02T10:07:03.044Z,95.20
2023-01-02T10:08:03.060Z,95.34
2023-01-02T10:09:02.848Z,95.65
2023-01-02T10:10:02.750Z,95.90
2023-01-02T10:11:02.751Z,95.79
2023-01-02T10:12:02.669Z,95.79
2023-01-02T10:13:02.685Z,96.10
2023-01-02T10:14:19.758Z,96.55
2023-01-02T10:15:02.653Z,97.06
2023-01-02T10:16:02.824Z,97.47
2023-01-02T10:17:02.399Z,97.67
2023-01-02T10:18:02.538Z,97.67
2023-01-02T10:19:02.110Z,98.18
2023-01-02T10:20:02.148Z,98.28
2023-01-02T10:21:02.043Z,98.39
2023-01-02T10:22:02.685Z,98.59
2023-01-02T10:23:02.510Z,98.49
2023-01-02T10:24:02.576Z,98.49
2023-01-02T10:25:02.616Z,98.08
2023-01-02T10:26:02.709Z,98.08
2023-01-02T10:27:02.832Z,98.28
2023-01-02T10:28:03.310Z,98.08
2023-01-02T10:29:02.492Z,98.28
2023-01-02T10:30:02.599Z,97.78
2023-01-02T10:31:07.042Z,97.67
2023-01-02T10:32:02.502Z,97.06
2023-01-02T10:33:02.441Z,97.16
2023-01-02T10:34:02.415Z,96.76
2023-01-02T10:35:02.530Z,97.16
2023-01-02T10:36:02.300Z,96.55
2023-01-02T10:37:07.804Z,96.45
2023-01-02T10:38:03.054Z,96.45
2023-01-02T10:39:02.828Z,96.25
2023-01-02T10:40:02.908Z,96.35
2023-01-02T10:41:02.957Z,96.15
2023-01-02T10:42:02.770Z,96.55
2023-01-02T10:43:02.501Z,96.96
2023-01-02T10:44:02.294Z,96.96
2023-01-02T10:45:02.265Z,96.86
2023-01-02T10:46:02.193Z,96.41
2023-01-02T10:47:02.902Z,96.51
2023-01-02T10:48:02.962Z,96.10
2023-01-02T10:49:02.939Z,95.90
2023-01-02T10:50:02.708Z,95.75
2023-01-02T10:51:02.549Z,95.14
2023-01-02T10:52:03.277Z,95.04
2023-01-02T10:53:03.325Z,95.24
2023-01-02T10:54:03.161Z,95.54
2023-01-02T10:55:03.266Z,95.75
2023-01-02T10:56:03.060Z,95.85
2023-01-02T10:57:02.787Z,96.15
2023-01-02T10:58:02.552Z,95.85
2023-01-02T10:59:02.563Z,95.85
2023-01-02T11:00:02.569Z,96.06
2023-01-02T11:01:02.753Z,96.06
2023-01-02T11:02:03.294Z,95.85
2023-01-02T11:03:03.152Z,95.65
2023-01-02T11:04:02.981Z,95.50
2023-01-02T11:05:03.068Z,95.40
2023-01-02T11:06:25.804Z,95.61
2023-01-02T11:07:03.211Z,95.40
2023-01-02T11:08:02.936Z,95.20
2023-01-02T11:09:02.949Z,94.79
2023-01-02T11:10:02.960Z,94.38
2023-01-02T11:11:02.980Z,95.00
2023-01-02T11:12:03.377Z,94.44
2023-01-02T11:13:03.343Z,94.54
2023-01-02T11:14:02.941Z,94.54
2023-01-02T11:15:02.907Z,94.54
2023-01-02T11:16:03.015Z,94.44
2023-01-02T11:17:03.737Z,94.09
2023-01-02T11:18:03.507Z,94.13
2023-01-02T11:19:03.502Z,93.52
2023-01-02T11:20:03.516Z,93.83
2023-01-02T11:21:03.361Z,94.44
2023-01-02T11:22:03.792Z,94.54
2023-01-02T11:23:03.676Z,94.64
2023-01-02T11:24:03.680Z,94.54
2023-01-02T11:25:03.498Z,94.85
2023-01-02T11:26:03.510Z,94.60
2023-01-02T11:27:02.625Z,94.40
2023-01-02T11:28:02.675Z,93.99
2023-01-02T11:29:02.731Z,94.09
2023-01-02T11:30:02.841Z,93.79
2023-01-02T11:31:02.904Z,94.04
2023-01-02T11:32:03.116Z,94.44
2023-01-02T11:33:03.400Z,94.74
2023-01-02T11:34:03.460Z,94.29
2023-01-02T11:35:03.502Z,93.79
2023-01-02T11:36:03.619Z,93.59
2023-01-02T11:37:03.393Z,93.38
2023-01-02T11:38:02.934Z,93.59
2023-01-02T11:39:02.996Z,93.59
2023-01-02T11:40:02.769Z,93.07
2023-01-02T11:41:02.954Z,92.97
2023-01-02T11:42:02.727Z,93.18
2023-01-02T11:43:03.310Z,93.28
2023-01-02T11:44:03.350Z,93.48
2023-01-02T11:45:03.355Z,92.32
2023-01-02T11:46:03.004Z,91.82
2023-01-02T11:47:02.957Z,91.82
2023-01-02T11:48:03.634Z,91.20
2023-01-02T11:49:03.666Z,91.20
2023-01-02T11:50:03.552Z,91.41
2023-01-02T11:51:03.592Z,91.10
2023-01-02T11:52:03.588Z,91.20
2023-01-02T11:53:03.206Z,91.30
2023-01-02T11:54:03.197Z,91.41
2023-01-02T11:55:03.272Z,91.61
2023-01-02T11:56:03.179Z,91.41
2023-01-02T11:57:03.202Z,91.30
2023-01-02T11:58:03.266Z,91.20
2023-01-02T11:59:03.383Z,90.90
2023-01-02T12:00:03.448Z,90.70
2023-01-02T12:01:03.562Z,90.70
2023-01-02T12:02:03.473Z,90.05
2023-01-02T12:03:03.417Z,89.94
2023-01-02T12:04:03.592Z,90.35
2023-01-02T12:05:03.520Z,90.14
2023-01-02T12:06:03.541Z,89.94
2023-01-02T12:07:03.590Z,90.35
2023-01-02T12:08:03.625Z,90.96
2023-01-02T12:09:03.368Z,91.00
2023-01-02T12:10:03.427Z,91.30
2023-01-02T12:11:03.462Z,91.71
2023-01-02T12:12:03.350Z,92.02
2023-01-02T12:13:02.990Z,92.22
2023-01-02T12:14:02.892Z,92.42
2023-01-02T12:15:02.911Z,92.72
2023-01-02T12:16:02.994Z,93.07
2023-01-02T12:17:03.037Z,92.63
2023-01-02T12:18:02.556Z,92.12
2023-01-02T12:19:02.916Z,91.61
2023-01-02T12:20:05.617Z,91.00
2023-01-02T12:21:02.488Z,91.30
2023-01-02T12:22:02.719Z,91.91
2023-01-02T12:23:03.437Z,91.82
2023-01-02T12:24:03.026Z,92.02
2023-01-02T12:25:03.132Z,92.22
2023-01-02T12:26:08.844Z,91.82
2023-01-02T12:27:03.253Z,91.91
2023-01-02T12:28:03.120Z,92.02
2023-01-02T12:29:02.888Z,92.83
2023-01-02T12:30:02.905Z,93.03
2023-01-02T12:31:02.860Z,93.24
2023-01-02T12:32:06.708Z,93.33
2023-01-02T12:33:03.306Z,93.44
2023-01-02T12:34:03.350Z,93.44
2023-01-02T12:35:03.758Z,93.24
2023-01-02T12:36:03.538Z,92.72
2023-01-02T12:37:03.434Z,92.22
2023-01-02T12:38:03.229Z,92.63
2023-01-02T12:39:03.038Z,92.63
2023-01-02T12:40:03.032Z,92.32
2023-01-02T12:41:03.061Z,92.22
2023-01-02T12:42:03.103Z,92.63
2023-01-02T12:43:02.668Z,92.48
2023-01-02T12:44:02.741Z,92.58
2023-01-02T12:45:02.789Z,92.28
2023-01-02T12:46:02.893Z,91.67
2023-01-02T12:47:02.933Z,92.28
2023-01-02T12:48:02.874Z,92.58
2023-01-02T12:49:03.053Z,92.38
2023-01-02T12:50:03.105Z,92.28
2023-01-02T12:51:03.128Z,92.28
2023-01-02T12:52:03.123Z,91.97